Time;durP1;ratioP1;P1;durP2;ratioP2;P2;SDS_P1;SDS_P2;PMS_P1;PMS_P2;Temp;Humidity;BMP_temperature;BMP_pressure;BME280_temperature;BME280_humidity;BME280_pressure;Samples;Min_cycle;Max_cycle;Signal;HPM_P1;HPM_P2
2023/11/26 00:02:12;;;;;;;0.10;0.10;;;;;;;1.25;59.23;98497.66;4277790;33;20204;-91
2023/11/26 00:04:38;;;;;;;0.10;0.10;;;;;;;1.21;59.24;98497.69;4278717;33;22194;-90
2023/11/26 00:07:03;;;;;;;0.00;0.00;;;;;;;1.27;59.24;98501.88;4281072;33;20155;-91
2023/11/26 00:09:30;;;;;;;0.00;0.00;;;;;;;1.26;59.24;98499.34;4277610;33;20112;-90
2023/11/26 00:11:55;;;;;;;0.13;0.10;;;;;;;1.29;59.25;98504.41;4277514;33;20123;-90
2023/11/26 00:14:21;;;;;;;2.92;1.55;;;;;;;1.32;59.24;98505.22;4277468;33;20484;-91
2023/11/26 00:16:46;;;;;;;0.15;0.15;;;;;;;1.33;59.24;98503.50;4276953;33;22304;-91
2023/11/26 00:19:12;;;;;;;0.00;0.00;;;;;;;1.33;59.25;98499.22;4277127;33;24905;-90
2023/11/26 00:21:37;;;;;;;0.00;0.00;;;;;;;1.31;59.24;98503.53;4277364;33;20123;-91
2023/11/26 00:24:03;;;;;;;0.00;0.00;;;;;;;1.33;59.25;98501.78;4277296;33;20180;-91
2023/11/26 00:26:28;;;;;;;0.20;0.20;;;;;;;1.43;59.25;98498.22;4277312;33;20538;-91
2023/11/26 00:28:54;;;;;;;0.20;0.20;;;;;;;1.37;59.24;98506.00;4277267;33;20116;-92
2023/11/26 00:31:22;;;;;;;0.00;0.00;;;;;;;1.35;59.25;98504.31;4277165;33;20145;-91
2023/11/26 00:33:48;;;;;;;0.10;0.10;;;;;;;1.42;59.26;98500.78;4277154;33;20406;-91
2023/11/26 00:36:18;;;;;;;0.00;0.00;;;;;;;1.24;59.24;98504.50;4277329;33;20139;-91
2023/11/26 00:38:43;;;;;;;0.00;0.00;;;;;;;1.38;59.24;98500.00;4289448;33;20128;-92
2023/11/26 00:41:09;;;;;;;0.00;0.00;;;;;;;1.29;59.25;98499.28;4277064;33;20088;-91
2023/11/26 00:43:35;;;;;;;0.45;0.35;;;;;;;1.32;59.24;98504.38;4277283;33;20115;-91
2023/11/26 00:46:01;;;;;;;0.00;0.00;;;;;;;1.36;59.25;98498.31;4277550;33;20104;-92
2023/11/26 00:48:29;;;;;;;0.28;0.20;;;;;;;1.27;59.25;98507.00;4277677;33;20154;-91
2023/11/26 00:50:54;;;;;;;5.87;0.77;;;;;;;1.26;59.24;98505.31;4278664;33;20096;-91
2023/11/26 00:53:20;;;;;;;0.70;0.65;;;;;;;1.21;59.24;98505.38;4278464;33;20476;-92
2023/11/26 00:55:46;;;;;;;0.10;0.10;;;;;;;1.17;59.23;98501.16;4278730;33;20103;-91
2023/11/26 00:58:11;;;;;;;0.08;0.08;;;;;;;1.29;59.25;98515.53;4278817;33;20132;-92
2023/11/26 01:00:38;;;;;;;0.00;0.00;;;;;;;1.06;59.23;98515.84;4278832;33;20356;-91
2023/11/26 01:03:03;;;;;;;0.10;0.10;;;;;;;1.31;59.24;98511.22;4278633;33;20176;-91
2023/11/26 01:05:29;;;;;;;0.30;0.30;;;;;;;1.18;59.23;98507.13;4278635;33;20407;-91
2023/11/26 01:07:54;;;;;;;0.00;0.00;;;;;;;1.14;59.24;98505.47;4278739;33;20176;-90
2023/11/26 01:10:21;;;;;;;0.00;0.00;;;;;;;1.33;59.24;98513.75;4282137;33;20142;-92
2023/11/26 01:12:47;;;;;;;0.70;0.70;;;;;;;1.38;59.24;98494.88;4278916;33;20090;-91
2023/11/26 01:15:13;;;;;;;2.80;1.75;;;;;;;1.09;59.23;98502.97;4290447;33;20155;-91
2023/11/26 01:17:38;;;;;;;1.20;0.43;;;;;;;1.29;59.24;98494.16;4278712;33;20116;-91
2023/11/26 01:20:05;;;;;;;0.47;0.47;;;;;;;1.08;59.23;98501.28;4278590;33;20131;-93
2023/11/26 01:22:31;;;;;;;4.25;2.47;;;;;;;1.34;59.25;98489.81;4278441;33;20164;-91
2023/11/26 01:24:56;;;;;;;0.00;0.00;;;;;;;1.22;59.24;98493.41;4278416;33;20124;-91
2023/11/26 01:27:22;;;;;;;0.68;0.65;;;;;;;1.32;59.24;98491.56;4278032;33;20124;-91
2023/11/26 01:29:47;;;;;;;0.00;0.00;;;;;;;1.07;59.23;98496.19;4278101;33;20172;-91
2023/11/26 01:32:12;;;;;;;0.00;0.00;;;;;;;1.10;59.23;98491.87;4278554;33;20137;-91
2023/11/26 01:34:38;;;;;;;0.00;0.00;;;;;;;1.17;59.23;98485.78;4278510;33;20124;-92
2023/11/26 01:37:05;;;;;;;0.00;0.00;;;;;;;1.12;59.23;98479.03;4278624;33;20105;-91
2023/11/26 01:39:30;;;;;;;4.70;1.75;;;;;;;1.12;59.23;98476.47;4278572;33;20101;-92
2023/11/26 01:41:55;;;;;;;0.15;0.15;;;;;;;1.07;59.23;98485.94;4278233;33;20374;-91
2023/11/26 01:44:21;;;;;;;0.40;0.40;;;;;;;1.11;59.24;98475.63;4278065;33;20587;-92
2023/11/26 01:46:46;;;;;;;0.80;0.47;;;;;;;1.09;59.23;98479.91;4278329;33;20539;-91
2023/11/26 01:49:11;;;;;;;0.60;0.60;;;;;;;1.00;59.23;98477.50;4278014;33;23074;-91
2023/11/26 01:51:37;;;;;;;0.30;0.30;;;;;;;0.99;59.22;98492.91;4278490;33;20100;-91
2023/11/26 01:54:02;;;;;;;1.17;0.32;;;;;;;0.93;59.22;98492.09;4278448;33;20187;-92
2023/11/26 01:56:28;;;;;;;0.73;0.73;;;;;;;0.94;59.22;98485.25;4290384;33;20136;-91
2023/11/26 01:58:54;;;;;;;0.00;0.00;;;;;;;0.98;59.23;98489.50;4278306;33;20189;-91
2023/11/26 02:01:21;;;;;;;0.00;0.00;;;;;;;1.02;59.23;98487.72;4278160;33;20101;-91
2023/11/26 02:03:46;;;;;;;0.00;0.00;;;;;;;1.05;59.23;98485.97;4278143;33;20131;-91
2023/11/26 02:06:12;;;;;;;0.17;0.17;;;;;;;0.99;59.23;98485.22;4278658;33;20458;-91
2023/11/26 02:08:38;;;;;;;0.00;0.00;;;;;;;1.03;59.24;98490.25;4278208;33;20138;-91
2023/11/26 02:11:03;;;;;;;0.00;0.00;;;;;;;1.08;59.23;98490.19;4277980;33;24166;-92
2023/11/26 02:13:29;;;;;;;0.90;0.88;;;;;;;1.01;59.22;98499.69;4283500;33;20152;-92
2023/11/26 02:15:54;;;;;;;0.00;0.00;;;;;;;1.07;59.23;98494.47;4277755;33;24158;-91
2023/11/26 02:18:21;;;;;;;2.75;2.20;;;;;;;1.12;59.23;98502.09;4278413;33;20118;-93
2023/11/26 02:20:46;;;;;;;0.00;0.00;;;;;;;1.17;59.25;98506.28;4278572;33;20115;-91
2023/11/26 02:23:12;;;;;;;0.00;0.00;;;;;;;1.04;59.23;98509.91;4290280;33;20113;-92
2023/11/26 02:25:38;;;;;;;0.52;0.52;;;;;;;1.13;59.23;98506.34;4278417;33;20796;-91
2023/11/26 02:28:05;;;;;;;0.20;0.20;;;;;;;1.02;59.22;98509.06;4278210;33;20126;-92
2023/11/26 02:30:31;;;;;;;0.73;0.62;;;;;;;1.30;59.25;98508.69;4278310;33;20089;-91
2023/11/26 02:32:58;;;;;;;0.28;0.28;;;;;;;1.41;59.26;98505.06;4278167;33;20112;-91
2023/11/26 02:35:23;;;;;;;0.00;0.00;;;;;;;1.35;59.25;98512.84;4278073;33;20117;-91
2023/11/26 02:37:49;;;;;;;3.42;2.10;;;;;;;1.28;59.25;98513.81;4278227;33;20120;-91
2023/11/26 02:40:15;;;;;;;0.00;0.00;;;;;;;1.32;59.24;98520.59;4278085;33;20160;-91
2023/11/26 02:42:42;;;;;;;0.05;0.05;;;;;;;1.26;59.25;98535.22;4290079;33;20181;-91
2023/11/26 02:45:07;;;;;;;0.15;0.15;;;;;;;1.16;59.23;98532.78;4278044;33;20099;-91
2023/11/26 02:47:33;;;;;;;0.10;0.10;;;;;;;1.28;59.24;98536.91;4278037;33;20128;-91
2023/11/26 02:49:58;;;;;;;0.00;0.00;;;;;;;1.28;59.25;98538.63;4278231;33;20395;-91
2023/11/26 02:52:24;;;;;;;0.00;0.00;;;;;;;1.23;59.24;98531.84;4289595;33;25301;-91
2023/11/26 02:54:49;;;;;;;0.10;0.10;;;;;;;1.37;59.25;98534.19;4277806;33;20424;-92
2023/11/26 02:57:14;;;;;;;0.13;0.13;;;;;;;1.44;59.25;98540.94;4277816;33;20164;-93
2023/11/26 02:59:41;;;;;;;2.40;1.10;;;;;;;1.57;59.26;98543.31;4278081;33;20120;-92
2023/11/26 03:02:07;;;;;;;0.88;0.85;;;;;;;1.54;59.26;98546.78;4290009;33;20131;-92
2023/11/26 03:04:32;;;;;;;2.47;2.28;;;;;;;1.46;59.25;98553.75;4278232;33;20113;-91
2023/11/26 03:06:58;;;;;;;0.00;0.00;;;;;;;1.49;59.26;98559.66;4278273;33;20104;-92
2023/11/26 03:14:44;;;;;;;0.00;0.00;;;;;;;1.62;59.26;98568.00;4280001;33;20173;-91
2023/11/26 03:17:10;;;;;;;0.00;0.00;;;;;;;1.83;59.27;98554.00;4282401;33;20105;-92
2023/11/26 03:19:36;;;;;;;0.00;0.00;;;;;;;1.69;59.26;98561.94;4265210;33;31611;-91
2023/11/26 03:22:07;;;;;;;0.00;0.00;;;;;;;1.71;59.27;98557.62;4277803;33;20117;-91
2023/11/26 03:24:33;;;;;;;0.00;0.00;;;;;;;1.94;59.28;98561.53;4266444;33;20137;-92
2023/11/26 03:26:58;;;;;;;0.00;0.00;;;;;;;1.78;59.28;98561.78;4289895;33;20123;-92
2023/11/26 03:29:24;;;;;;;0.35;0.35;;;;;;;1.70;59.27;98567.91;4277194;33;31677;-93
2023/11/26 03:31:51;;;;;;;0.00;0.00;;;;;;;1.92;59.28;98569.28;4266177;33;20113;-92
2023/11/26 03:34:17;;;;;;;0.30;0.30;;;;;;;2.01;59.29;98566.53;4277704;33;20116;-91
2023/11/26 03:36:42;;;;;;;0.00;0.00;;;;;;;1.85;59.28;98578.75;4265376;33;20498;-92
2023/11/26 03:39:08;;;;;;;1.30;1.02;;;;;;;1.92;59.29;98576.13;4265492;33;20225;-92
2023/11/26 03:41:33;;;;;;;1.45;1.08;;;;;;;1.98;59.29;98579.44;4265503;33;20144;-92
2023/11/26 03:44:05;;;;;;;0.00;0.00;;;;;;;1.71;59.27;98590.97;4277629;33;20125;-92
2023/11/26 03:46:32;;;;;;;0.55;0.52;;;;;;;1.97;59.28;98589.72;4265094;33;20123;-91
2023/11/26 03:48:59;;;;;;;0.00;0.00;;;;;;;1.82;59.27;98594.22;4264871;33;20127;-92
2023/11/26 03:51:24;;;;;;;1.45;0.40;;;;;;;1.91;59.27;98597.53;4265006;33;20135;-92
2023/11/26 03:53:49;;;;;;;0.10;0.10;;;;;;;1.93;59.28;98603.47;4262439;33;20116;-91
2023/11/26 03:56:15;;;;;;;0.32;0.32;;;;;;;2.05;59.28;98606.69;4262817;33;20175;-92
2023/11/26 03:58:40;;;;;;;0.35;0.35;;;;;;;1.87;59.28;98609.53;4262875;33;20131;-92
2023/11/26 04:01:08;;;;;;;0.00;0.00;;;;;;;1.90;59.27;98611.22;4262578;33;20168;-92
2023/11/26 04:03:33;;;;;;;0.00;0.00;;;;;;;1.84;59.28;98624.97;4288684;33;20139;-92
2023/11/26 04:05:59;;;;;;;0.00;0.00;;;;;;;1.65;59.26;98624.38;4262686;33;20475;-92
2023/11/26 04:08:24;;;;;;;0.00;0.00;;;;;;;1.49;59.26;98635.75;4262594;33;20481;-92
2023/11/26 04:10:50;;;;;;;0.10;0.10;;;;;;;1.61;59.26;98632.16;4287973;33;24601;-92
2023/11/26 04:13:17;;;;;;;0.00;0.00;;;;;;;1.60;59.26;98638.16;4276626;33;20830;-92
2023/11/26 04:15:44;;;;;;;0.22;0.22;;;;;;;1.68;59.26;98636.34;4277264;33;20093;-92
2023/11/26 04:18:09;;;;;;;0.00;0.00;;;;;;;1.83;59.28;98634.38;4265256;33;20095;-92
2023/11/26 04:20:35;;;;;;;0.00;0.00;;;;;;;1.91;59.27;98631.72;4293111;33;20139;-91
2023/11/26 04:23:00;;;;;;;0.00;0.00;;;;;;;1.87;59.28;98630.06;4276166;33;20896;-91
2023/11/26 04:25:26;;;;;;;0.00;0.00;;;;;;;1.88;59.28;98638.59;4265061;33;20100;-91
2023/11/26 04:27:51;;;;;;;0.00;0.00;;;;;;;1.85;59.28;98636.94;4265020;33;20101;-92
2023/11/26 04:30:17;;;;;;;0.50;0.30;;;;;;;2.18;59.29;98647.56;4264852;33;20136;-92
2023/11/26 04:32:43;;;;;;;0.20;0.20;;;;;;;1.92;59.28;98645.41;4264883;33;20109;-91
2023/11/26 04:35:08;;;;;;;0.00;0.00;;;;;;;2.06;59.29;98654.56;4264920;33;20115;-91
2023/11/26 04:37:34;;;;;;;0.00;0.00;;;;;;;1.82;59.27;98654.94;4265082;33;20108;-92
2023/11/26 04:40:00;;;;;;;0.52;0.47;;;;;;;2.05;59.29;98659.72;4264874;33;20148;-91
2023/11/26 04:42:26;;;;;;;0.00;0.00;;;;;;;1.96;59.28;98663.28;4264771;33;20142;-91
2023/11/26 04:44:52;;;;;;;0.00;0.00;;;;;;;1.95;59.28;98663.31;4264839;33;20100;-92
2023/11/26 04:47:17;;;;;;;0.05;0.05;;;;;;;1.77;59.27;98664.44;4264592;33;20134;-92
2023/11/26 04:49:43;;;;;;;0.00;0.00;;;;;;;1.81;59.27;98672.06;4276895;33;20467;-91
2023/11/26 04:52:11;;;;;;;0.00;0.00;;;;;;;1.82;59.27;98673.75;4264526;33;21446;-91
2023/11/26 04:54:36;;;;;;;0.17;0.17;;;;;;;1.79;59.27;98680.66;4264922;33;20533;-91
2023/11/26 04:57:02;;;;;;;0.52;0.52;;;;;;;1.81;59.28;98673.78;4264974;33;20089;-92
2023/11/26 04:59:27;;;;;;;0.30;0.30;;;;;;;1.70;59.27;98684.19;4264858;33;20516;-91
2023/11/26 05:01:56;;;;;;;0.00;0.00;;;;;;;1.68;59.27;98682.53;4264827;33;20164;-91
2023/11/26 05:04:21;;;;;;;0.00;0.00;;;;;;;1.69;59.26;98690.19;4264914;33;20126;-91
2023/11/26 05:06:47;;;;;;;0.28;0.28;;;;;;;1.84;59.28;98692.53;4264873;33;20113;-91
2023/11/26 05:09:12;;;;;;;0.00;0.00;;;;;;;1.81;59.27;98696.88;4264467;33;21449;-91
2023/11/26 05:11:43;;;;;;;0.80;0.75;;;;;;;1.94;59.28;98700.13;4264810;33;20148;-92
2023/11/26 05:14:10;;;;;;;0.00;0.00;;;;;;;1.82;59.27;98703.69;4264964;33;20179;-92
2023/11/26 05:16:36;;;;;;;0.00;0.00;;;;;;;1.98;59.28;98709.47;4264345;33;20127;-91
2023/11/26 05:19:02;;;;;;;0.00;0.00;;;;;;;1.85;59.28;98696.78;4264731;33;20109;-92
2023/11/26 05:21:27;;;;;;;0.00;0.00;;;;;;;1.96;59.28;98698.37;4264613;33;20180;-91
2023/11/26 05:23:54;;;;;;;0.00;0.00;;;;;;;1.94;59.29;98706.09;4267599;33;29838;-92
2023/11/26 05:26:20;;;;;;;0.20;0.20;;;;;;;2.01;59.28;98705.13;4264624;33;20088;-91
2023/11/26 05:28:45;;;;;;;0.10;0.10;;;;;;;1.94;59.28;98712.94;4264487;33;20486;-91
2023/11/26 05:31:11;;;;;;;0.20;0.20;;;;;;;1.86;59.28;98710.47;4264403;33;20196;-93
2023/11/26 05:33:37;;;;;;;0.15;0.15;;;;;;;1.91;59.28;98713.00;4264413;33;20941;-91
2023/11/26 05:36:05;;;;;;;0.90;0.90;;;;;;;1.87;59.28;98719.87;4277141;33;20101;-91
2023/11/26 05:38:30;;;;;;;0.00;0.00;;;;;;;1.89;59.27;98727.53;4266778;33;20144;-92
2023/11/26 05:40:56;;;;;;;0.03;0.03;;;;;;;1.87;59.28;98730.13;4266415;33;20132;-91
2023/11/26 05:43:21;;;;;;;0.00;0.00;;;;;;;1.91;59.27;98730.97;4266507;33;20111;-90
2023/11/26 05:45:47;;;;;;;0.10;0.10;;;;;;;1.91;59.27;98731.81;4266447;33;20451;-90
2023/11/26 05:48:12;;;;;;;0.00;0.00;;;;;;;1.77;59.27;98731.13;4266811;33;20140;-92
2023/11/26 05:50:39;;;;;;;0.17;0.17;;;;;;;1.77;59.28;98733.69;4266769;33;20205;-92
2023/11/26 05:53:04;;;;;;;0.43;0.43;;;;;;;1.69;59.26;98736.37;4266904;33;20101;-91
2023/11/26 05:55:29;;;;;;;0.45;0.13;;;;;;;1.79;59.27;98744.78;4266586;33;20120;-92
2023/11/26 05:57:55;;;;;;;0.05;0.05;;;;;;;1.78;59.27;98743.94;4266921;33;20376;-92
2023/11/26 06:00:20;;;;;;;0.03;0.03;;;;;;;1.75;59.26;98751.69;4266630;33;20113;-91
2023/11/26 06:02:46;;;;;;;0.30;0.30;;;;;;;1.97;59.28;98752.25;4266674;33;20118;-92
2023/11/26 06:05:12;;;;;;;0.13;0.13;;;;;;;2.02;59.28;98763.28;4278667;33;20447;-92
2023/11/26 06:07:38;;;;;;;0.00;0.00;;;;;;;2.03;59.28;98765.00;4266517;33;20109;-92
2023/11/26 06:10:04;;;;;;;0.00;0.00;;;;;;;2.12;59.29;98764.84;4278658;33;20233;-91
2023/11/26 06:12:31;;;;;;;1.70;0.77;;;;;;;2.12;59.29;98764.00;4266707;33;20094;-93
2023/11/26 06:14:56;;;;;;;0.82;0.82;;;;;;;2.25;59.30;98762.97;4266617;33;20454;-92
2023/11/26 06:17:22;;;;;;;0.00;0.00;;;;;;;2.38;59.31;98767.06;4266633;33;20161;-93
2023/11/26 06:19:47;;;;;;;0.00;0.00;;;;;;;2.32;59.30;98779.13;4266757;33;20105;-92
2023/11/26 06:22:13;;;;;;;0.00;0.00;;;;;;;2.48;59.31;98767.78;4266645;33;20138;-93
2023/11/26 06:24:38;;;;;;;0.55;0.50;;;;;;;2.30;59.30;98776.59;4278543;33;20124;-92
2023/11/26 06:27:04;;;;;;;0.00;0.00;;;;;;;2.28;59.29;98786.03;4271436;33;20136;-91
2023/11/26 06:29:30;;;;;;;0.70;0.62;;;;;;;2.25;59.30;98780.09;4266563;33;20101;-92
2023/11/26 06:31:55;;;;;;;0.22;0.17;;;;;;;2.19;59.29;98783.59;4289935;33;20453;-91
2023/11/26 06:34:26;;;;;;;5.57;0.70;;;;;;;2.33;59.30;98786.81;4265944;33;23227;-92
2023/11/26 06:36:52;;;;;;;0.62;0.62;;;;;;;2.40;59.30;98790.16;4266810;33;20734;-92
2023/11/26 06:39:19;;;;;;;0.00;0.00;;;;;;;2.50;59.31;98788.28;4266486;33;20100;-91
2023/11/26 06:41:44;;;;;;;0.08;0.03;;;;;;;2.38;59.31;98789.34;4278355;33;20458;-92
2023/11/26 06:44:09;;;;;;;0.00;0.00;;;;;;;2.41;59.31;98794.44;4266252;33;20110;-93
2023/11/26 06:46:35;;;;;;;0.52;0.52;;;;;;;2.39;59.31;98798.75;4266102;33;20112;-92
2023/11/26 06:49:01;;;;;;;0.00;0.00;;;;;;;2.73;59.33;98806.78;4278002;33;20180;-91
2023/11/26 06:51:26;;;;;;;0.00;0.00;;;;;;;2.81;59.34;98811.78;4266255;33;20750;-92
2023/11/26 06:53:52;;;;;;;0.70;0.70;;;;;;;2.92;59.33;98815.03;4277754;33;20441;-92
2023/11/26 06:56:17;;;;;;;0.28;0.28;;;;;;;3.00;59.34;98815.75;4266007;33;20176;-92
2023/11/26 06:58:43;;;;;;;0.55;0.55;;;;;;;3.11;59.35;98821.59;4278027;33;20138;-93
2023/11/26 07:01:10;;;;;;;0.45;0.45;;;;;;;2.99;59.34;98821.78;4266260;33;20562;-92
2023/11/26 07:03:35;;;;;;;0.22;0.22;;;;;;;3.08;59.34;98825.06;4266332;33;20126;-92
2023/11/26 07:06:01;;;;;;;3.30;0.90;;;;;;;3.08;59.34;98821.66;4265677;33;24116;-92
2023/11/26 07:08:27;;;;;;;0.00;0.00;;;;;;;3.13;59.35;98822.41;4266070;33;20117;-91
2023/11/26 07:10:52;;;;;;;0.20;0.20;;;;;;;3.28;59.36;98823.84;4265972;33;20092;-92
2023/11/26 07:13:19;;;;;;;0.50;0.22;;;;;;;3.27;59.36;98822.16;4266131;33;20097;-93
2023/11/26 07:15:44;;;;;;;0.10;0.10;;;;;;;3.18;59.35;98825.75;4266273;33;20479;-91
2023/11/26 07:18:10;;;;;;;1.45;0.55;;;;;;;3.22;59.35;98824.81;4266303;33;20160;-93
2023/11/26 07:20:37;;;;;;;0.47;0.37;;;;;;;3.20;59.35;98818.84;4265978;33;20121;-93
2023/11/26 07:23:02;;;;;;;0.00;0.00;;;;;;;3.17;59.34;98828.34;4266531;33;20104;-93
2023/11/26 07:25:28;;;;;;;0.00;0.00;;;;;;;3.02;59.35;98827.72;4266397;33;20121;-93
2023/11/26 07:27:53;;;;;;;0.00;0.00;;;;;;;3.22;59.35;98839.41;4266132;33;20176;-93
2023/11/26 07:30:18;;;;;;;0.47;0.47;;;;;;;3.15;59.35;98840.38;4270926;33;20143;-94
2023/11/26 07:32:44;;;;;;;0.25;0.25;;;;;;;3.21;59.35;98841.13;4266431;33;20123;-92
2023/11/26 07:35:10;;;;;;;0.20;0.20;;;;;;;3.20;59.35;98847.12;4266377;33;20140;-93
2023/11/26 07:37:35;;;;;;;0.22;0.15;;;;;;;3.44;59.36;98845.88;4266279;33;20139;-94
2023/11/26 07:40:04;;;;;;;0.00;0.00;;;;;;;3.36;59.36;98856.31;4266781;33;20100;-93
2023/11/26 07:42:29;;;;;;;0.37;0.37;;;;;;;3.40;59.37;98857.09;4266487;33;20183;-93
2023/11/26 07:44:55;;;;;;;0.00;0.00;;;;;;;3.32;59.36;98857.22;4278378;33;20132;-93
2023/11/26 07:47:22;;;;;;;0.00;0.00;;;;;;;3.30;59.35;98850.37;4278587;33;20096;-94
2023/11/26 07:49:47;;;;;;;0.10;0.10;;;;;;;3.34;59.36;98852.06;4266896;33;20096;-93
2023/11/26 07:52:12;;;;;;;0.10;0.10;;;;;;;3.21;59.35;98838.53;4266651;33;20143;-93
2023/11/26 07:54:38;;;;;;;0.00;0.00;;;;;;;3.29;59.35;98844.41;4267274;33;20178;-94
2023/11/26 07:57:04;;;;;;;0.15;0.15;;;;;;;3.35;59.36;98846.88;4266518;33;20212;-93
2023/11/26 07:59:30;;;;;;;0.00;0.00;;;;;;;3.54;59.38;98843.97;4266408;33;20814;-94
2023/11/26 08:01:55;;;;;;;0.00;0.00;;;;;;;3.56;59.37;98844.81;4291234;33;20096;-94
2023/11/26 08:04:22;;;;;;;1.55;1.20;;;;;;;3.47;59.37;98855.25;4267090;33;20523;-94
2023/11/26 08:06:52;;;;;;;0.13;0.13;;;;;;;3.56;59.37;98852.53;4267778;33;20133;-95
2023/11/26 08:09:17;;;;;;;0.75;0.75;;;;;;;3.53;59.36;98861.12;4267483;33;20171;-94
2023/11/26 08:11:46;;;;;;;0.30;0.20;;;;;;;3.72;59.38;98865.94;4291002;33;20147;-94
2023/11/26 08:14:12;;;;;;;0.00;0.00;;;;;;;3.63;59.38;98869.53;4268354;33;20077;-95
2023/11/26 08:16:41;;;;;;;1.85;1.20;;;;;;;3.70;59.38;98871.13;4267613;33;20100;-94
2023/11/26 08:19:16;;;;;;;2.35;1.35;;;;;;;3.81;59.38;98879.50;4268259;33;20108;-95
2023/11/26 08:21:42;;;;;;;1.75;0.50;;;;;;;3.92;59.40;98876.72;4270464;33;20109;-94
2023/11/26 08:24:19;;;;;;;0.35;0.35;;;;;;;3.77;59.39;98875.28;4270352;33;20112;-95
2023/11/26 08:26:46;;;;;;;1.25;0.62;;;;;;;3.87;59.39;98870.81;4292585;33;20128;-95
2023/11/26 08:29:18;;;;;;;2.08;0.98;;;;;;;3.95;59.39;98862.06;4293531;33;20092;-94
2023/11/26 08:31:49;;;;;;;0.22;0.22;;;;;;;3.91;59.40;98872.44;4272239;33;20092;-94
2023/11/26 08:34:17;;;;;;;0.13;0.13;;;;;;;3.74;59.38;98865.03;4296630;33;20173;-96
2023/11/26 08:36:43;;;;;;;0.10;0.08;;;;;;;3.93;59.39;98873.25;4268987;33;20467;-94
2023/11/26 08:39:15;;;;;;;0.00;0.00;;;;;;;3.88;59.39;98885.38;4268300;33;20123;-95
2023/11/26 08:41:42;;;;;;;0.45;0.45;;;;;;;3.81;59.38;98879.50;4269193;33;20077;-95
2023/11/26 08:44:09;;;;;;;0.00;0.00;;;;;;;4.00;59.40;98882.56;4268565;33;20139;-94
2023/11/26 08:46:37;;;;;;;0.32;0.32;;;;;;;4.00;59.40;98880.84;4267177;33;20113;-96
2023/11/26 08:49:03;;;;;;;1.10;1.10;;;;;;;3.97;59.39;98883.47;4268033;33;20065;-95
2023/11/26 08:51:32;;;;;;;0.03;0.03;;;;;;;4.13;59.41;98878.03;4267218;33;20120;-94
2023/11/26 08:53:59;;;;;;;0.32;0.28;;;;;;;3.97;59.39;98872.31;4268743;33;20116;-94
2023/11/26 08:56:25;;;;;;;0.00;0.00;;;;;;;4.06;59.40;98877.31;4267645;33;20121;-95
2023/11/26 08:58:51;;;;;;;0.00;0.00;;;;;;;4.10;59.40;98880.66;4267192;33;20104;-96
2023/11/26 09:01:17;;;;;;;0.05;0.05;;;;;;;4.02;59.40;98885.94;4268152;33;20124;-95
2023/11/26 09:03:44;;;;;;;0.00;0.00;;;;;;;4.12;59.40;98889.22;4280070;33;20127;-95
2023/11/26 09:06:10;;;;;;;0.20;0.20;;;;;;;4.24;59.41;98888.94;4292448;33;20539;-96
2023/11/26 09:08:35;;;;;;;0.00;0.00;;;;;;;4.34;59.41;98881.91;4267149;33;23031;-96
2023/11/26 09:11:01;;;;;;;0.00;0.00;;;;;;;4.44;59.43;98880.81;4269078;33;20173;-94
2023/11/26 09:13:29;;;;;;;0.00;0.00;;;;;;;4.41;59.42;98879.16;4269738;33;20167;-95
2023/11/26 09:15:55;;;;;;;0.00;0.00;;;;;;;4.69;59.44;98899.19;4295356;33;20129;-94
2023/11/26 09:18:21;;;;;;;0.00;0.00;;;;;;;4.81;59.45;98896.34;4281997;33;20207;-95
2023/11/26 09:20:50;;;;;;;1.00;0.43;;;;;;;5.00;59.45;98892.47;4294047;33;20093;-95
2023/11/26 09:23:16;;;;;;;0.00;0.00;;;;;;;4.97;59.45;98899.41;4281100;33;20139;-94
2023/11/26 09:25:41;;;;;;;0.00;0.00;;;;;;;4.89;59.45;98886.69;4269070;33;20105;-95
2023/11/26 09:28:07;;;;;;;0.00;0.00;;;;;;;4.88;59.45;98893.56;4268780;33;20184;-95
2023/11/26 09:30:32;;;;;;;0.00;0.00;;;;;;;4.81;59.44;98893.75;4280595;33;20123;-95
2023/11/26 09:32:58;;;;;;;0.05;0.05;;;;;;;4.53;59.43;98904.69;4280403;33;20169;-93
2023/11/26 09:35:24;;;;;;;0.00;0.00;;;;;;;4.47;59.42;98906.50;4273775;33;20151;-94
2023/11/26 09:37:49;;;;;;;0.20;0.20;;;;;;;4.39;59.42;98909.25;4270617;33;20093;-96
2023/11/26 09:40:15;;;;;;;0.20;0.20;;;;;;;4.27;59.42;98912.09;4268186;33;20117;-95
2023/11/26 09:42:40;;;;;;;0.00;0.00;;;;;;;4.16;59.41;98917.44;4268661;33;20587;-95
2023/11/26 09:45:09;;;;;;;0.00;0.00;;;;;;;4.43;59.43;98916.03;4280364;33;20172;-94
2023/11/26 09:47:35;;;;;;;0.00;0.00;;;;;;;4.61;59.43;98919.97;4280532;33;20104;-95
2023/11/26 09:50:00;;;;;;;1.35;0.47;;;;;;;4.62;59.43;98925.09;4268630;33;20463;-96
2023/11/26 09:52:26;;;;;;;0.00;0.00;;;;;;;4.68;59.44;98902.63;4268437;33;20368;-95
2023/11/26 09:54:52;;;;;;;0.00;0.00;;;;;;;4.50;59.42;98916.78;4268669;33;20116;-94
2023/11/26 09:57:17;;;;;;;0.10;0.10;;;;;;;4.53;59.43;98917.56;4268514;33;20093;-94
2023/11/26 09:59:42;;;;;;;0.00;0.00;;;;;;;4.47;59.42;98909.94;4268468;33;20185;-95
2023/11/26 10:02:09;;;;;;;0.00;0.00;;;;;;;4.49;59.42;98927.94;4268010;33;20109;-95
2023/11/26 10:04:48;;;;;;;0.00;0.00;;;;;;;4.68;59.43;98920.69;4279948;33;20117;-96
2023/11/26 10:07:14;;;;;;;0.03;0.03;;;;;;;4.59;59.43;98926.87;4280024;33;20130;-96
2023/11/26 10:09:40;;;;;;;0.25;0.25;;;;;;;4.29;59.42;98938.69;4280064;33;20501;-94
2023/11/26 10:12:06;;;;;;;0.10;0.10;;;;;;;4.51;59.43;98939.94;4268121;33;20125;-95
2023/11/26 10:14:31;;;;;;;1.08;0.90;;;;;;;4.53;59.43;98938.19;4280425;33;20121;-94
2023/11/26 10:17:10;;;;;;;0.20;0.20;;;;;;;4.57;59.43;98942.37;4279854;33;20159;-95
2023/11/26 10:19:36;;;;;;;1.30;1.20;;;;;;;4.56;59.43;98948.44;4268309;33;20126;-95
2023/11/26 10:22:01;;;;;;;0.00;0.00;;;;;;;4.65;59.44;98938.78;4280470;33;20266;-95
2023/11/26 10:24:27;;;;;;;0.00;0.00;;;;;;;4.83;59.44;98951.28;4293609;33;20485;-94
2023/11/26 10:26:57;;;;;;;0.00;0.00;;;;;;;4.85;59.44;98958.13;4270598;33;20096;-95
2023/11/26 10:29:30;;;;;;;0.00;0.00;;;;;;;4.89;59.45;98953.72;4269095;33;20123;-94
2023/11/26 10:32:01;;;;;;;6.85;2.20;;;;;;;4.76;59.44;98966.06;4268844;33;20147;-94
2023/11/26 10:34:31;;;;;;;0.00;0.00;;;;;;;4.86;59.44;98971.84;4292652;33;20126;-93
2023/11/26 10:36:57;;;;;;;0.00;0.00;;;;;;;4.81;59.45;98956.50;4268989;33;20444;-93
2023/11/26 10:39:23;;;;;;;0.20;0.20;;;;;;;4.79;59.43;98971.16;4275702;33;20463;-95
2023/11/26 10:41:49;;;;;;;0.82;0.80;;;;;;;4.71;59.43;98964.44;4269714;33;20440;-94
2023/11/26 10:44:15;;;;;;;0.35;0.35;;;;;;;4.68;59.44;98977.38;4280037;33;20113;-95
2023/11/26 10:46:44;;;;;;;0.00;0.00;;;;;;;4.64;59.42;98984.34;4268327;33;20123;-95
2023/11/26 10:49:18;;;;;;;0.03;0.03;;;;;;;4.46;59.42;98977.81;4267960;33;20123;-95
2023/11/26 10:51:50;;;;;;;0.35;0.35;;;;;;;4.61;59.43;98972.37;4279672;33;20108;-92
2023/11/26 10:54:38;;;;;;;11.25;0.57;;;;;;;4.54;59.43;98996.56;4268074;33;20116;-93
2023/11/26 10:57:11;;;;;;;0.00;0.00;;;;;;;4.56;59.43;98999.12;4278838;33;20466;-93
2023/11/26 10:59:42;;;;;;;0.20;0.20;;;;;;;4.78;59.44;98992.66;4267549;33;20161;-93
2023/11/26 11:02:08;;;;;;;0.00;0.00;;;;;;;4.59;59.43;98994.75;4291320;33;20164;-94
2023/11/26 11:04:34;;;;;;;0.47;0.47;;;;;;;4.63;59.43;99001.53;4267418;33;20586;-94
2023/11/26 11:06:59;;;;;;;1.45;1.10;;;;;;;4.51;59.43;99001.78;4279215;33;20140;-93
2023/11/26 11:09:29;;;;;;;0.52;0.52;;;;;;;4.44;59.42;99000.19;4267709;33;20101;-93
2023/11/26 11:12:07;;;;;;;0.00;0.00;;;;;;;4.56;59.43;98999.97;4267708;33;20129;-94
2023/11/26 11:14:33;;;;;;;0.00;0.00;;;;;;;4.51;59.43;99017.25;4279255;33;20125;-93
2023/11/26 11:16:58;;;;;;;0.00;0.00;;;;;;;4.44;59.43;99004.50;4291166;33;20145;-94
2023/11/26 11:19:45;;;;;;;0.00;0.00;;;;;;;4.40;59.42;99032.06;4264698;33;90007;-94
2023/11/26 11:22:11;;;;;;;0.10;0.10;;;;;;;4.18;59.41;99018.72;4275511;33;20112;-93
2023/11/26 11:24:36;;;;;;;0.00;0.00;;;;;;;4.08;59.41;99030.06;4267181;33;20574;-94
2023/11/26 11:27:02;;;;;;;0.10;0.10;;;;;;;3.97;59.39;99027.66;4278901;33;20438;-93
2023/11/26 11:29:31;;;;;;;0.00;0.00;;;;;;;3.95;59.39;99029.41;4267439;33;20088;-93
2023/11/26 11:32:03;;;;;;;0.00;0.00;;;;;;;3.88;59.39;99034.69;4267348;33;20109;-94
2023/11/26 11:34:29;;;;;;;0.00;0.00;;;;;;;4.04;59.40;99058.47;4267258;33;20334;-93
2023/11/26 11:36:58;;;;;;;0.00;0.00;;;;;;;3.85;59.39;99043.31;4267343;33;20127;-93
2023/11/26 11:39:46;;;;;;;0.40;0.40;;;;;;;4.23;59.41;99031.50;4267708;33;20110;-94
2023/11/26 11:42:26;;;;;;;0.10;0.10;;;;;;;4.28;59.42;99040.03;4273309;33;20209;-94
2023/11/26 11:44:52;;;;;;;0.00;0.00;;;;;;;4.04;59.40;99051.59;4268674;33;20184;-94